Time;durP1;ratioP1;P1;durP2;ratioP2;P2;SDS_P1;SDS_P2;PMS_P1;PMS_P2;Temp;Humidity;BMP_temperature;BMP_pressure;BME280_temperature;BME280_humidity;BME280_pressure;Samples;Min_cycle;Max_cycle;Signal;HPM_P1;HPM_P2
2021/05/09 00:01:21;;;;;;;;;;;9.70;99.90;;;;;;10449580;28;20011;-69
2021/05/09 00:06:23;;;;;;;;;;;9.60;99.90;;;;;;10448981;28;19932;-69
2021/05/09 00:11:24;;;;;;;;;;;9.50;99.90;;;;;;10449090;28;19976;-69
2021/05/09 00:16:26;;;;;;;;;;;9.40;99.90;;;;;;10448382;28;19968;-69
2021/05/09 00:21:27;;;;;;;;;;;9.40;99.90;;;;;;10448784;28;20793;-69
2021/05/09 00:26:28;;;;;;;;;;;9.20;99.90;;;;;;10447480;28;20011;-69
2021/05/09 00:31:29;;;;;;;;;;;9.20;99.90;;;;;;10448397;28;19946;-69
2021/05/09 00:36:31;;;;;;;;;;;9.10;99.90;;;;;;10447768;28;19925;-69
2021/05/09 00:41:32;;;;;;;;;;;9.10;99.90;;;;;;10447555;28;19975;-69
2021/05/09 00:46:34;;;;;;;;;;;9.00;99.90;;;;;;10446651;28;19925;-69
2021/05/09 00:51:35;;;;;;;;;;;8.90;99.90;;;;;;10447119;28;19931;-69
2021/05/09 00:56:38;;;;;;;;;;;8.70;99.90;;;;;;10447225;28;20031;-69
2021/05/09 01:01:41;;;;;;;;;;;8.70;99.90;;;;;;10446791;28;19925;-69
2021/05/09 01:06:44;;;;;;;;;;;8.60;99.90;;;;;;10446183;28;20024;-68
2021/05/09 01:11:46;;;;;;;;;;;8.60;99.90;;;;;;10447187;28;19925;-69
2021/05/09 01:16:47;;;;;;;;;;;8.50;99.90;;;;;;10446369;28;19964;-69
2021/05/09 01:21:49;;;;;;;;;;;8.30;99.90;;;;;;10446345;28;20614;-69
2021/05/09 01:26:51;;;;;;;;;;;8.20;99.90;;;;;;10445989;28;19933;-69
2021/05/09 01:31:52;;;;;;;;;;;8.10;99.90;;;;;;10445512;28;19990;-68
2021/05/09 01:36:54;;;;;;;;;;;8.00;99.90;;;;;;10445173;28;19940;-68
2021/05/09 01:41:56;;;;;;;;;;;7.90;99.90;;;;;;10446104;28;19972;-69
2021/05/09 01:46:57;;;;;;;;;;;7.90;99.90;;;;;;10445911;28;20008;-69
2021/05/09 01:51:59;;;;;;;;;;;7.90;99.90;;;;;;10444761;28;19929;-69
2021/05/09 01:57:00;;;;;;;;;;;7.80;99.90;;;;;;10444171;28;20397;-69
2021/05/09 02:02:02;;;;;;;;;;;7.80;99.90;;;;;;10456449;28;20004;-68
2021/05/09 02:07:03;;;;;;;;;;;7.70;99.90;;;;;;10460001;28;19931;-69
2021/05/09 02:12:05;;;;;;;;;;;7.50;99.90;;;;;;10460589;28;20430;-69
2021/05/09 02:17:06;;;;;;;;;;;7.50;99.90;;;;;;10460535;28;20390;-69
2021/05/09 02:22:08;;;;;;;;;;;7.40;99.90;;;;;;10459709;28;19931;-69
2021/05/09 02:27:09;;;;;;;;;;;7.40;99.90;;;;;;10460283;28;19975;-69
2021/05/09 02:32:11;;;;;;;;;;;7.30;99.90;;;;;;10459460;28;19975;-69
2021/05/09 02:37:13;;;;;;;;;;;7.30;99.90;;;;;;10460011;28;20004;-69
2021/05/09 02:42:15;;;;;;;;;;;7.30;99.90;;;;;;10459346;28;19928;-69
2021/05/09 02:47:28;;;;;;;;;;;7.10;99.90;;;;;;10459655;28;19965;-69
2021/05/09 02:52:30;;;;;;;;;;;7.10;99.90;;;;;;10458881;28;19925;-69
2021/05/09 02:57:31;;;;;;;;;;;7.10;99.90;;;;;;10458588;28;20432;-69
2021/05/09 03:02:32;;;;;;;;;;;7.10;99.90;;;;;;10457065;28;20182;-69
2021/05/09 03:07:36;;;;;;;;;;;7.20;99.90;;;;;;10452155;28;19987;-68
2021/05/09 03:12:37;;;;;;;;;;;7.10;99.90;;;;;;10451300;28;20032;-69
2021/05/09 03:17:38;;;;;;;;;;;7.00;99.90;;;;;;10451351;28;20023;-69
2021/05/09 03:22:40;;;;;;;;;;;7.00;99.90;;;;;;10450721;28;20031;-69
2021/05/09 03:27:41;;;;;;;;;;;6.70;99.90;;;;;;10450540;28;19956;-69
2021/05/09 03:32:42;;;;;;;;;;;6.70;99.90;;;;;;10450099;28;20039;-69
2021/05/09 03:37:44;;;;;;;;;;;6.80;99.90;;;;;;10450241;28;20377;-68
2021/05/09 03:42:45;;;;;;;;;;;6.80;99.90;;;;;;10449902;28;20448;-68
2021/05/09 03:47:46;;;;;;;;;;;6.90;99.90;;;;;;10450137;28;19979;-68
2021/05/09 03:52:47;;;;;;;;;;;6.90;99.90;;;;;;10448853;28;20023;-69
2021/05/09 03:57:49;;;;;;;;;;;6.90;99.90;;;;;;10449541;28;20015;-68
2021/05/09 04:02:50;;;;;;;;;;;6.80;99.90;;;;;;10449460;28;19979;-68
2021/05/09 04:07:51;;;;;;;;;;;6.80;99.90;;;;;;10449549;28;20409;-68
2021/05/09 04:12:52;;;;;;;;;;;6.90;99.90;;;;;;10449284;28;19990;-68
2021/05/09 04:17:54;;;;;;;;;;;7.00;99.90;;;;;;10447376;28;20020;-69
2021/05/09 04:23:06;;;;;;;;;;;7.20;99.90;;;;;;10447256;28;19964;-68
2021/05/09 04:28:07;;;;;;;;;;;7.30;99.90;;;;;;10448300;28;19974;-68
2021/05/09 04:33:09;;;;;;;;;;;7.50;99.90;;;;;;10446528;28;20396;-68
2021/05/09 04:38:10;;;;;;;;;;;7.60;99.90;;;;;;10447700;28;20380;-69
2021/05/09 04:43:16;;;;;;;;;;;7.70;99.90;;;;;;10447413;28;20023;-68
2021/05/09 04:48:17;;;;;;;;;;;7.90;99.90;;;;;;10447201;28;20327;-68
2021/05/09 04:53:29;;;;;;;;;;;8.60;99.90;;;;;;10436968;28;19929;-69
2021/05/09 04:58:30;;;;;;;;;;;9.80;99.90;;;;;;10446838;28;19964;-69
2021/05/09 05:03:32;;;;;;;;;;;9.40;99.90;;;;;;10446715;28;19971;-69
2021/05/09 05:08:34;;;;;;;;;;;9.70;99.90;;;;;;10446079;28;19931;-69
2021/05/09 05:13:36;;;;;;;;;;;11.00;99.90;;;;;;10446312;28;19925;-69
2021/05/09 05:18:37;;;;;;;;;;;12.20;99.90;;;;;;10446375;28;19955;-69
2021/05/09 05:23:39;;;;;;;;;;;11.30;99.90;;;;;;10445989;28;20015;-70
2021/05/09 05:28:40;;;;;;;;;;;10.50;99.90;;;;;;10446169;28;19925;-70
2021/05/09 05:33:41;;;;;;;;;;;10.30;99.90;;;;;;10445722;28;20007;-69
2021/05/09 05:38:43;;;;;;;;;;;10.60;99.90;;;;;;10446147;28;19925;-70
2021/05/09 05:43:44;;;;;;;;;;;11.10;99.90;;;;;;10445724;28;20019;-70
2021/05/09 05:48:45;;;;;;;;;;;11.40;99.90;;;;;;10446303;28;20020;-70
2021/05/09 05:53:47;;;;;;;;;;;11.50;99.90;;;;;;10444917;28;20031;-70
2021/05/09 05:58:48;;;;;;;;;;;11.70;99.90;;;;;;10445750;28;19931;-70
2021/05/09 06:03:50;;;;;;;;;;;11.60;99.90;;;;;;10445171;28;19925;-70
2021/05/09 06:08:53;;;;;;;;;;;11.30;99.90;;;;;;10445435;28;20012;-70
2021/05/09 06:13:54;;;;;;;;;;;11.20;99.90;;;;;;10445440;28;19925;-70
2021/05/09 06:18:55;;;;;;;;;;;11.40;99.90;;;;;;10445205;28;19925;-70
2021/05/09 06:23:56;;;;;;;;;;;11.60;99.90;;;;;;10433210;28;20557;-70
2021/05/09 06:28:58;;;;;;;;;;;12.00;99.90;;;;;;10444705;28;19968;-70
2021/05/09 06:33:59;;;;;;;;;;;12.00;99.90;;;;;;10444688;28;19929;-70
2021/05/09 06:39:03;;;;;;;;;;;12.20;99.90;;;;;;10444598;28;19929;-70
2021/05/09 06:44:09;;;;;;;;;;;12.30;99.90;;;;;;10446655;28;19978;-70
2021/05/09 06:49:10;;;;;;;;;;;12.50;99.90;;;;;;10466931;28;19929;-70
2021/05/09 06:54:12;;;;;;;;;;;12.60;99.90;;;;;;10451639;28;20782;-70
2021/05/09 06:59:13;;;;;;;;;;;12.90;99.90;;;;;;10451882;28;19983;-70
2021/05/09 07:04:14;;;;;;;;;;;12.80;99.90;;;;;;10451298;28;20031;-70
2021/05/09 07:09:15;;;;;;;;;;;13.30;99.90;;;;;;10450909;28;19983;-70
2021/05/09 07:14:17;;;;;;;;;;;13.30;99.90;;;;;;10446328;28;20015;-70
2021/05/09 07:19:18;;;;;;;;;;;13.40;99.90;;;;;;10449843;28;20011;-70
2021/05/09 07:24:19;;;;;;;;;;;13.50;99.90;;;;;;10443742;28;20011;-70
2021/05/09 07:29:21;;;;;;;;;;;13.80;99.90;;;;;;10448567;28;19928;-70
2021/05/09 07:34:22;;;;;;;;;;;14.20;99.90;;;;;;10446558;28;19972;-70
2021/05/09 07:39:23;;;;;;;;;;;15.30;99.90;;;;;;10438674;28;20071;-70
2021/05/09 07:44:25;;;;;;;;;;;16.70;99.70;;;;;;10412728;28;20009;-70
2021/05/09 07:49:26;;;;;;;;;;;17.80;94.10;;;;;;10456384;28;20023;-70
2021/05/09 07:54:28;;;;;;;;;;;18.40;91.80;;;;;;10443405;28;20019;-70
2021/05/09 07:59:31;;;;;;;;;;;19.00;88.20;;;;;;10432574;28;20050;-70
2021/05/09 08:04:33;;;;;;;;;;;19.70;80.40;;;;;;10429883;28;19963;-71
2021/05/09 08:09:34;;;;;;;;;;;19.80;76.10;;;;;;10447182;28;20019;-70
2021/05/09 08:14:36;;;;;;;;;;;19.70;78.30;;;;;;10421971;28;19968;-71
2021/05/09 08:19:37;;;;;;;;;;;20.50;76.90;;;;;;10413056;28;20412;-71
2021/05/09 08:24:39;;;;;;;;;;;21.30;69.10;;;;;;10432741;28;19968;-71
2021/05/09 08:29:41;;;;;;;;;;;22.10;65.80;;;;;;10422747;28;20015;-71
2021/05/09 08:34:44;;;;;;;;;;;22.40;65.10;;;;;;10436502;28;19971;-70
2021/05/09 08:39:45;;;;;;;;;;;22.80;65.50;;;;;;10431414;28;19968;-71
2021/05/09 08:44:47;;;;;;;;;;;23.20;59.80;;;;;;10441508;28;19972;-71
2021/05/09 08:49:49;;;;;;;;;;;23.40;57.60;;;;;;10433423;28;19975;-70
2021/05/09 08:54:51;;;;;;;;;;;23.80;55.50;;;;;;10404522;28;20007;-71
2021/05/09 08:59:52;;;;;;;;;;;23.70;54.40;;;;;;10424834;28;20039;-71
2021/05/09 09:04:54;;;;;;;;;;;23.80;54.20;;;;;;10437177;28;19928;-71
2021/05/09 09:09:56;;;;;;;;;;;24.30;52.90;;;;;;10445622;28;20292;-71
2021/05/09 09:14:59;;;;;;;;;;;24.10;52.10;;;;;;10433163;28;20020;-64
2021/05/09 09:20:00;;;;;;;;;;;24.40;52.20;;;;;;10451109;28;19929;-64
2021/05/09 09:25:05;;;;;;;;;;;24.50;51.00;;;;;;10428118;28;20349;-64
2021/05/09 09:30:07;;;;;;;;;;;24.40;51.50;;;;;;10430284;28;19955;-64
2021/05/09 09:35:28;;;;;;;;;;;24.40;50.60;;;;;;10431056;28;20024;-64
2021/05/09 09:40:29;;;;;;;;;;;24.60;50.10;;;;;;10436033;28;20016;-64
2021/05/09 09:45:37;;;;;;;;;;;24.70;49.50;;;;;;10427163;28;20022;-64
2021/05/09 09:50:46;;;;;;;;;;;24.80;47.80;;;;;;10429588;28;20393;-64
2021/05/09 09:56:06;;;;;;;;;;;25.00;47.70;;;;;;10444099;28;19929;-62
2021/05/09 10:01:07;;;;;;;;;;;24.90;47.40;;;;;;10434004;28;20034;-61
2021/05/09 10:06:09;;;;;;;;;;;24.70;47.30;;;;;;10434692;28;20373;-61
2021/05/09 10:11:10;;;;;;;;;;;24.80;47.10;;;;;;10445326;28;20452;-62
2021/05/09 10:16:12;;;;;;;;;;;24.70;47.40;;;;;;10442532;28;20023;-61
2021/05/09 10:21:15;;;;;;;;;;;24.70;47.90;;;;;;10457165;28;20400;-61
2021/05/09 10:26:28;;;;;;;;;;;25.10;47.20;;;;;;10438182;28;19929;-61
2021/05/09 10:31:30;;;;;;;;;;;25.00;46.70;;;;;;10448953;28;20448;-61
2021/05/09 10:36:35;;;;;;;;;;;25.00;46.80;;;;;;10450416;28;19931;-61
2021/05/09 10:41:53;;;;;;;;;;;25.10;46.80;;;;;;10439099;28;19936;-60
2021/05/09 10:47:02;;;;;;;;;;;25.00;46.20;;;;;;10451085;28;19925;-61
2021/05/09 10:52:22;;;;;;;;;;;25.10;46.10;;;;;;10451293;28;19935;-60
2021/05/09 10:57:44;;;;;;;;;;;25.10;46.20;;;;;;10450205;28;19925;-60
2021/05/09 11:02:45;;;;;;;;;;;25.00;47.00;;;;;;10448874;28;20016;-61
2021/05/09 11:07:47;;;;;;;;;;;25.20;46.50;;;;;;10474242;28;19925;-60
2021/05/09 11:13:01;;;;;;;;;;;25.10;46.50;;;;;;10424990;28;20088;-63
2021/05/09 11:18:28;;;;;;;;;;;24.90;46.10;;;;;;10428538;28;20553;-63
2021/05/09 11:23:38;;;;;;;;;;;24.80;48.40;;;;;;10448999;28;19972;-63
2021/05/09 11:28:40;;;;;;;;;;;25.10;47.80;;;;;;10445509;28;19929;-63
2021/05/09 11:33:53;;;;;;;;;;;25.30;46.80;;;;;;10449419;28;19929;-63
2021/05/09 11:39:10;;;;;;;;;;;25.40;46.90;;;;;;10448619;28;20011;-63
2021/05/09 11:44:12;;;;;;;;;;;25.60;46.40;;;;;;10447684;28;20441;-63
2021/05/09 11:49:13;;;;;;;;;;;25.30;46.50;;;;;;10444480;28;19983;-63
2021/05/09 11:54:15;;;;;;;;;;;25.10;46.50;;;;;;10452870;28;19967;-63
2021/05/09 11:59:35;;;;;;;;;;;25.40;46.50;;;;;;10454135;28;20019;-63
2021/05/09 12:04:37;;;;;;;;;;;25.70;46.20;;;;;;10466286;28;19979;-63
2021/05/09 12:09:38;;;;;;;;;;;26.20;45.70;;;;;;10459852;28;20004;-63
2021/05/09 12:14:40;;;;;;;;;;;26.30;45.80;;;;;;10468454;28;19924;-63
2021/05/09 12:19:41;;;;;;;;;;;26.20;46.00;;;;;;10458449;28;19976;-62
2021/05/09 12:25:00;;;;;;;;;;;26.50;45.40;;;;;;10433992;28;20020;-63
2021/05/09 12:30:03;;;;;;;;;;;26.90;45.80;;;;;;10408285;28;19968;-63
2021/05/09 12:35:09;;;;;;;;;;;26.70;44.80;;;;;;10410867;28;20854;-63
2021/05/09 12:40:13;;;;;;;;;;;26.20;44.80;;;;;;10443087;28;19939;-63
2021/05/09 12:45:18;;;;;;;;;;;26.10;46.00;;;;;;10427459;28;19975;-63
2021/05/09 12:50:22;;;;;;;;;;;26.10;47.50;;;;;;10435086;28;20284;-63
2021/05/09 12:55:24;;;;;;;;;;;26.60;46.00;;;;;;10456484;28;19936;-63
2021/05/09 13:00:32;;;;;;;;;;;27.00;45.70;;;;;;10456721;28;20011;-63
2021/05/09 13:05:34;;;;;;;;;;;27.20;43.80;;;;;;10442662;28;20011;-63
2021/05/09 13:10:35;;;;;;;;;;;27.60;45.10;;;;;;10475021;28;20018;-63
2021/05/09 13:15:40;;;;;;;;;;;28.00;43.50;;;;;;10464857;28;19925;-61
2021/05/09 13:20:41;;;;;;;;;;;28.20;41.60;;;;;;10447777;28;19925;-61
2021/05/09 13:25:44;;;;;;;;;;;28.20;40.80;;;;;;10451210;28;19929;-61
2021/05/09 13:30:45;;;;;;;;;;;28.00;40.00;;;;;;10446629;28;19924;-61
2021/05/09 13:35:46;;;;;;;;;;;28.00;40.90;;;;;;10467097;28;20007;-61
2021/05/09 13:40:48;;;;;;;;;;;28.20;42.50;;;;;;10435850;28;19946;-61
2021/05/09 13:45:49;;;;;;;;;;;27.70;37.90;;;;;;10486715;28;20023;-61
2021/05/09 13:50:50;;;;;;;;;;;27.50;37.10;;;;;;10480017;28;19960;-63
2021/05/09 13:55:52;;;;;;;;;;;27.40;37.70;;;;;;10481688;28;20031;-63
2021/05/09 14:00:53;;;;;;;;;;;27.50;37.60;;;;;;10489192;28;19971;-63
2021/05/09 14:05:55;;;;;;;;;;;27.40;37.30;;;;;;10495513;28;19964;-63
2021/05/09 14:10:56;;;;;;;;;;;27.40;37.80;;;;;;10492788;28;19925;-63
2021/05/09 14:15:57;;;;;;;;;;;27.30;37.90;;;;;;10486117;28;20385;-63
2021/05/09 14:20:59;;;;;;;;;;;27.00;38.00;;;;;;10493325;28;19974;-63
2021/05/09 14:26:00;;;;;;;;;;;26.80;38.80;;;;;;10485177;28;20353;-63
2021/05/09 14:31:01;;;;;;;;;;;26.80;39.20;;;;;;10494585;28;20474;-63
2021/05/09 14:36:03;;;;;;;;;;;27.00;38.90;;;;;;10486021;28;20383;-63
2021/05/09 14:41:04;;;;;;;;;;;27.20;38.60;;;;;;10491403;28;20415;-63
2021/05/09 14:46:05;;;;;;;;;;;27.40;38.20;;;;;;10491415;28;20358;-63
2021/05/09 14:51:07;;;;;;;;;;;27.40;38.00;;;;;;10492700;28;19967;-63
2021/05/09 14:56:08;;;;;;;;;;;27.70;38.20;;;;;;10472509;28;20548;-64
2021/05/09 15:01:10;;;;;;;;;;;27.60;37.30;;;;;;10489698;28;20003;-63
2021/05/09 15:06:11;;;;;;;;;;;27.70;37.60;;;;;;10489301;28;20353;-63
2021/05/09 15:11:12;;;;;;;;;;;27.30;36.80;;;;;;10490685;28;19960;-63
2021/05/09 15:16:17;;;;;;;;;;;27.20;37.00;;;;;;10489091;28;20018;-63
2021/05/09 15:21:18;;;;;;;;;;;27.10;36.40;;;;;;10490638;28;19924;-63
2021/05/09 15:26:20;;;;;;;;;;;27.00;36.30;;;;;;10483553;28;19925;-63
2021/05/09 15:31:21;;;;;;;;;;;26.90;36.60;;;;;;10489330;28;19972;-62
2021/05/09 15:36:23;;;;;;;;;;;26.90;36.20;;;;;;10487837;28;19932;-63
2021/05/09 15:41:24;;;;;;;;;;;26.80;35.70;;;;;;10491277;28;19928;-63
2021/05/09 15:46:26;;;;;;;;;;;26.80;35.10;;;;;;10486417;28;19955;-63
2021/05/09 15:51:27;;;;;;;;;;;26.90;34.90;;;;;;10459795;28;20288;-63
2021/05/09 15:56:28;;;;;;;;;;;27.10;35.10;;;;;;10446592;28;19929;-63
2021/05/09 16:01:30;;;;;;;;;;;27.20;34.40;;;;;;10424958;28;19987;-63
2021/05/09 16:06:31;;;;;;;;;;;27.00;33.40;;;;;;10409539;28;19929;-63
2021/05/09 16:11:33;;;;;;;;;;;26.80;33.70;;;;;;10436336;28;20410;-63
2021/05/09 16:16:35;;;;;;;;;;;26.60;33.00;;;;;;10440884;28;20403;-63
2021/05/09 16:21:36;;;;;;;;;;;26.60;32.90;;;;;;10424614;28;19955;-63
2021/05/09 16:26:38;;;;;;;;;;;26.40;33.90;;;;;;10453242;28;19928;-63
2021/05/09 16:31:39;;;;;;;;;;;26.20;33.50;;;;;;10446640;28;20020;-63
2021/05/09 16:36:41;;;;;;;;;;;26.10;33.30;;;;;;10447767;28;19950;-63
2021/05/09 16:41:42;;;;;;;;;;;25.90;33.10;;;;;;10446811;28;19932;-63
2021/05/09 16:46:44;;;;;;;;;;;25.80;33.60;;;;;;10446992;28;20443;-63
2021/05/09 16:51:45;;;;;;;;;;;25.70;33.40;;;;;;10447101;28;20445;-63
2021/05/09 16:56:46;;;;;;;;;;;25.60;33.90;;;;;;10446324;28;20324;-63
2021/05/09 17:01:48;;;;;;;;;;;25.50;33.80;;;;;;10446521;28;20057;-63
2021/05/09 17:06:49;;;;;;;;;;;25.30;34.00;;;;;;10447088;28;20007;-63
2021/05/09 17:12:00;;;;;;;;;;;25.20;34.40;;;;;;10445583;28;19978;-63
2021/05/09 17:17:01;;;;;;;;;;;25.10;34.40;;;;;;10441694;28;20019;-63
2021/05/09 17:22:03;;;;;;;;;;;25.10;34.90;;;;;;10444701;28;19929;-63
2021/05/09 17:27:05;;;;;;;;;;;24.90;34.70;;;;;;10443532;28;19975;-63
2021/05/09 17:32:06;;;;;;;;;;;24.80;34.50;;;;;;10444737;28;20450;-63
2021/05/09 17:37:08;;;;;;;;;;;24.70;35.50;;;;;;10412441;28;20016;-63
2021/05/09 17:42:09;;;;;;;;;;;24.50;35.60;;;;;;10426982;28;20013;-63
2021/05/09 17:47:12;;;;;;;;;;;24.40;36.20;;;;;;10438495;28;19925;-63
2021/05/09 17:52:14;;;;;;;;;;;24.30;36.20;;;;;;10436874;28;20352;-63
2021/05/09 17:57:16;;;;;;;;;;;24.20;36.80;;;;;;10443209;28;21497;-63
2021/05/09 18:02:26;;;;;;;;;;;24.00;36.80;;;;;;10442342;28;20356;-63
2021/05/09 18:07:27;;;;;;;;;;;23.90;37.30;;;;;;10438143;28;19972;-63
2021/05/09 18:12:30;;;;;;;;;;;23.90;38.00;;;;;;10405643;28;20016;-63
2021/05/09 18:17:43;;;;;;;;;;;23.70;38.20;;;;;;10408925;28;20324;-63
2021/05/09 18:22:45;;;;;;;;;;;23.50;39.00;;;;;;10411690;28;20016;-63
2021/05/09 18:27:47;;;;;;;;;;;23.40;39.70;;;;;;10426282;28;20366;-63
2021/05/09 18:32:48;;;;;;;;;;;23.10;41.10;;;;;;10415270;28;20016;-63
2021/05/09 18:37:49;;;;;;;;;;;22.80;41.10;;;;;;10456281;28;19964;-63
2021/05/09 18:42:51;;;;;;;;;;;22.50;42.10;;;;;;10450214;28;19928;-63
2021/05/09 18:47:52;;;;;;;;;;;22.40;42.50;;;;;;10452287;28;19924;-63
2021/05/09 18:52:54;;;;;;;;;;;22.30;42.90;;;;;;10452094;28;19974;-63
2021/05/09 18:57:56;;;;;;;;;;;22.20;42.40;;;;;;10451797;28;20004;-63
2021/05/09 19:03:04;;;;;;;;;;;22.30;43.60;;;;;;10450764;28;20415;-65
2021/05/09 19:08:07;;;;;;;;;;;22.20;43.40;;;;;;10439893;28;19975;-65
2021/05/09 19:13:08;;;;;;;;;;;22.10;43.40;;;;;;10414362;28;20007;-65
2021/05/09 19:18:11;;;;;;;;;;;22.00;44.60;;;;;;10432267;28;19929;-65
2021/05/09 19:23:15;;;;;;;;;;;21.70;44.20;;;;;;10410300;28;19926;-65
2021/05/09 19:28:17;;;;;;;;;;;21.80;43.60;;;;;;10448322;28;19971;-65
2021/05/09 19:33:18;;;;;;;;;;;21.80;43.40;;;;;;10442400;28;20016;-65
2021/05/09 19:38:19;;;;;;;;;;;21.90;43.10;;;;;;10448412;28;19935;-65
2021/05/09 19:43:20;;;;;;;;;;;21.90;43.10;;;;;;10447734;28;20011;-65
2021/05/09 19:48:22;;;;;;;;;;;21.90;43.20;;;;;;10447032;28;20027;-65
2021/05/09 19:53:24;;;;;;;;;;;21.80;43.40;;;;;;10447813;28;19937;-65
2021/05/09 19:58:26;;;;;;;;;;;21.80;43.40;;;;;;10447157;28;19964;-66
2021/05/09 20:03:28;;;;;;;;;;;21.70;43.10;;;;;;10447380;28;19967;-65
2021/05/09 20:08:29;;;;;;;;;;;21.80;43.80;;;;;;10447519;28;19964;-65
2021/05/09 20:13:30;;;;;;;;;;;21.60;43.90;;;;;;10446976;28;19956;-65
2021/05/09 20:18:32;;;;;;;;;;;21.50;44.50;;;;;;10446842;28;20500;-65
2021/05/09 20:23:33;;;;;;;;;;;21.40;44.60;;;;;;10446514;28;20408;-65
2021/05/09 20:28:35;;;;;;;;;;;21.30;44.90;;;;;;10420417;28;20036;-65
2021/05/09 20:33:36;;;;;;;;;;;21.20;45.40;;;;;;10438259;28;19982;-65
2021/05/09 20:38:37;;;;;;;;;;;21.00;46.10;;;;;;10445866;28;20019;-65
2021/05/09 20:43:39;;;;;;;;;;;20.90;46.00;;;;;;10445223;28;20045;-65
2021/05/09 20:48:40;;;;;;;;;;;20.80;46.20;;;;;;10445587;28;19925;-65
2021/05/09 20:53:41;;;;;;;;;;;20.70;46.70;;;;;;10445148;28;20446;-65
2021/05/09 20:58:43;;;;;;;;;;;20.70;46.50;;;;;;10445472;28;19925;-65
2021/05/09 21:03:44;;;;;;;;;;;20.60;47.20;;;;;;10434409;28;20019;-65
2021/05/09 21:08:45;;;;;;;;;;;20.50;47.20;;;;;;10444973;28;20043;-65
2021/05/09 21:13:47;;;;;;;;;;;20.40;47.40;;;;;;10444161;28;19925;-66
2021/05/09 21:18:48;;;;;;;;;;;20.40;48.00;;;;;;10410683;28;20369;-65
2021/05/09 21:23:50;;;;;;;;;;;20.30;48.40;;;;;;10450290;28;19929;-65
2021/05/09 21:28:51;;;;;;;;;;;20.30;48.00;;;;;;10458891;28;19931;-65
2021/05/09 21:33:52;;;;;;;;;;;20.20;48.80;;;;;;10443738;28;19954;-65
2021/05/09 21:38:54;;;;;;;;;;;20.10;49.30;;;;;;10443848;28;20539;-65
2021/05/09 21:43:55;;;;;;;;;;;20.10;48.70;;;;;;10441785;28;19968;-65
2021/05/09 21:48:56;;;;;;;;;;;20.10;49.00;;;;;;10442980;28;19991;-65
2021/05/09 21:53:57;;;;;;;;;;;20.10;49.50;;;;;;10443547;28;19931;-65
2021/05/09 21:58:59;;;;;;;;;;;20.10;49.50;;;;;;10444824;28;20011;-65
2021/05/09 22:04:00;;;;;;;;;;;20.00;49.40;;;;;;10443863;28;20000;-65
2021/05/09 22:09:02;;;;;;;;;;;19.90;49.90;;;;;;10444447;28;19933;-65
2021/05/09 22:14:03;;;;;;;;;;;19.80;50.20;;;;;;10465291;28;19966;-65
2021/05/09 22:19:04;;;;;;;;;;;19.70;50.40;;;;;;10457646;28;20015;-65
2021/05/09 22:24:09;;;;;;;;;;;19.60;50.50;;;;;;10477773;28;20301;-65
2021/05/09 22:29:10;;;;;;;;;;;19.40;51.50;;;;;;10451758;28;19932;-65
2021/05/09 22:34:12;;;;;;;;;;;19.20;52.20;;;;;;10450009;28;20033;-65
2021/05/09 22:39:17;;;;;;;;;;;19.10;52.50;;;;;;10450998;28;19929;-65
2021/05/09 22:44:18;;;;;;;;;;;18.90;53.40;;;;;;10450802;28;20011;-65
2021/05/09 22:49:19;;;;;;;;;;;18.70;54.20;;;;;;10451637;28;20024;-65
2021/05/09 22:54:21;;;;;;;;;;;18.40;55.30;;;;;;10450576;28;20008;-65
2021/05/09 22:59:22;;;;;;;;;;;18.20;55.90;;;;;;10451771;28;19964;-65
2021/05/09 23:04:23;;;;;;;;;;;17.80;57.10;;;;;;10449001;28;19972;-65
2021/05/09 23:09:25;;;;;;;;;;;17.50;58.40;;;;;;10451641;28;20015;-65
2021/05/09 23:14:28;;;;;;;;;;;17.40;58.80;;;;;;10449972;28;20023;-65
2021/05/09 23:24:30;;;;;;;;;;;17.50;59.50;;;;;;10450666;28;20432;-65
2021/05/09 23:29:32;;;;;;;;;;;17.40;60.20;;;;;;10450247;28;20407;-67
2021/05/09 23:34:33;;;;;;;;;;;17.20;61.50;;;;;;10450458;28;19964;-67
2021/05/09 23:39:35;;;;;;;;;;;17.00;62.90;;;;;;10449060;28;20471;-67
2021/05/09 23:44:36;;;;;;;;;;;16.80;65.00;;;;;;10449461;28;19963;-67
2021/05/09 23:49:37;;;;;;;;;;;16.80;66.70;;;;;;10449627;28;19971;-69
2021/05/09 23:54:39;;;;;;;;;;;16.90;68.10;;;;;;10449690;28;19929;-67
2021/05/09 23:59:40;;;;;;;;;;;17.00;70.00;;;;;;10448999;28;19925;-67
